sensor_id;sensor_type;location;lat;lon;timestamp;pressure;altitude;pressure_sealevel;temperature
74374;BMP180;62809;51.090;-115.358;2022-08-19T00:01:57;87292.00;;;25.90
74374;BMP180;62809;51.090;-115.358;2022-08-19T00:04:32;87295.00;;;26.00
74374;BMP180;62809;51.090;-115.358;2022-08-19T00:07:06;87291.20;;;26.00
74374;BMP180;62809;51.090;-115.358;2022-08-19T00:09:33;87289.60;;;26.00
74374;BMP180;62809;51.090;-115.358;2022-08-19T00:12:01;87292.80;;;26.00
74374;BMP180;62809;51.090;-115.358;2022-08-19T00:14:31;87288.80;;;26.00
74374;BMP180;62809;51.090;-115.358;2022-08-19T00:17:03;87288.20;;;26.10
74374;BMP180;62809;51.090;-115.358;2022-08-19T00:19:32;87286.60;;;26.10
74374;BMP180;62809;51.090;-115.358;2022-08-19T00:22:01;87281.20;;;26.10
74374;BMP180;62809;51.090;-115.358;2022-08-19T00:24:32;87290.00;;;26.10
74374;BMP180;62809;51.090;-115.358;2022-08-19T00:27:02;87289.60;;;26.12
74374;BMP180;62809;51.090;-115.358;2022-08-19T00:29:30;87290.80;;;26.20
74374;BMP180;62809;51.090;-115.358;2022-08-19T00:32:00;87291.20;;;26.20
74374;BMP180;62809;51.090;-115.358;2022-08-19T00:34:28;87292.20;;;26.20
74374;BMP180;62809;51.090;-115.358;2022-08-19T00:36:57;87293.40;;;26.20
74374;BMP180;62809;51.090;-115.358;2022-08-19T00:39:31;87291.60;;;26.20
74374;BMP180;62809;51.090;-115.358;2022-08-19T00:42:00;87293.80;;;26.24
74374;BMP180;62809;51.090;-115.358;2022-08-19T00:44:29;87292.60;;;26.28
74374;BMP180;62809;51.090;-115.358;2022-08-19T00:46:58;87294.20;;;26.30
74374;BMP180;62809;51.090;-115.358;2022-08-19T00:49:36;87296.60;;;26.30
74374;BMP180;62809;51.090;-115.358;2022-08-19T00:52:12;87292.20;;;26.30
74374;BMP180;62809;51.090;-115.358;2022-08-19T00:54:42;87286.40;;;26.30
74374;BMP180;62809;51.090;-115.358;2022-08-19T00:57:19;87287.40;;;26.30
74374;BMP180;62809;51.090;-115.358;2022-08-19T00:59:54;87287.00;;;26.40
74374;BMP180;62809;51.090;-115.358;2022-08-19T01:02:24;87292.20;;;26.40
74374;BMP180;62809;51.090;-115.358;2022-08-19T01:04:53;87297.20;;;26.40
74374;BMP180;62809;51.090;-115.358;2022-08-19T01:07:24;87294.60;;;26.40
74374;BMP180;62809;51.090;-115.358;2022-08-19T01:09:52;87291.20;;;26.40
74374;BMP180;62809;51.090;-115.358;2022-08-19T01:12:21;87291.20;;;26.50
74374;BMP180;62809;51.090;-115.358;2022-08-19T01:14:51;87293.60;;;26.50
74374;BMP180;62809;51.090;-115.358;2022-08-19T01:17:22;87299.60;;;26.50
74374;BMP180;62809;51.090;-115.358;2022-08-19T01:19:51;87302.40;;;26.50
74374;BMP180;62809;51.090;-115.358;2022-08-19T01:22:34;87299.00;;;26.50
74374;BMP180;62809;51.090;-115.358;2022-08-19T01:25:07;87293.80;;;26.54
74374;BMP180;62809;51.090;-115.358;2022-08-19T01:27:49;87292.40;;;26.52
74374;BMP180;62809;51.090;-115.358;2022-08-19T01:30:24;87295.40;;;26.58
74374;BMP180;62809;51.090;-115.358;2022-08-19T01:32:56;87297.40;;;26.52
74374;BMP180;62809;51.090;-115.358;2022-08-19T01:35:29;87294.40;;;26.56
74374;BMP180;62809;51.090;-115.358;2022-08-19T01:38:08;87295.40;;;26.60
74374;BMP180;62809;51.090;-115.358;2022-08-19T01:40:40;87295.00;;;26.60
74374;BMP180;62809;51.090;-115.358;2022-08-19T01:43:12;87296.60;;;26.60
74374;BMP180;62809;51.090;-115.358;2022-08-19T01:45:41;87292.80;;;26.60
74374;BMP180;62809;51.090;-115.358;2022-08-19T01:48:09;87295.80;;;26.60
74374;BMP180;62809;51.090;-115.358;2022-08-19T01:50:39;87295.40;;;26.60
74374;BMP180;62809;51.090;-115.358;2022-08-19T01:53:10;87302.00;;;26.60
74374;BMP180;62809;51.090;-115.358;2022-08-19T01:55:42;87301.60;;;26.60
74374;BMP180;62809;51.090;-115.358;2022-08-19T01:58:28;87301.00;;;26.60
74374;BMP180;62809;51.090;-115.358;2022-08-19T02:00:57;87301.20;;;26.64
74374;BMP180;62809;51.090;-115.358;2022-08-19T02:03:26;87301.40;;;26.70
74374;BMP180;62809;51.090;-115.358;2022-08-19T02:06:00;87299.60;;;26.70
74374;BMP180;62809;51.090;-115.358;2022-08-19T02:08:31;87302.00;;;26.70
74374;BMP180;62809;51.090;-115.358;2022-08-19T02:11:00;87302.60;;;26.70
74374;BMP180;62809;51.090;-115.358;2022-08-19T02:13:30;87303.60;;;26.76
74374;BMP180;62809;51.090;-115.358;2022-08-19T02:15:58;87305.20;;;26.80
74374;BMP180;62809;51.090;-115.358;2022-08-19T02:18:27;87304.60;;;26.80
74374;BMP180;62809;51.090;-115.358;2022-08-19T02:20:55;87304.40;;;26.80
74374;BMP180;62809;51.090;-115.358;2022-08-19T02:23:22;87300.60;;;26.80
74374;BMP180;62809;51.090;-115.358;2022-08-19T02:25:49;87302.00;;;26.80
74374;BMP180;62809;51.090;-115.358;2022-08-19T02:28:19;87307.80;;;26.80
74374;BMP180;62809;51.090;-115.358;2022-08-19T02:30:48;87310.00;;;26.80
74374;BMP180;62809;51.090;-115.358;2022-08-19T02:33:16;87317.80;;;26.80
74374;BMP180;62809;51.090;-115.358;2022-08-19T02:35:46;87318.40;;;26.80
74374;BMP180;62809;51.090;-115.358;2022-08-19T02:38:14;87325.60;;;26.80
74374;BMP180;62809;51.090;-115.358;2022-08-19T02:41:12;87324.80;;;26.80
74374;BMP180;62809;51.090;-115.358;2022-08-19T02:43:41;87326.20;;;26.90
74374;BMP180;62809;51.090;-115.358;2022-08-19T02:46:26;87325.20;;;26.88
74374;BMP180;62809;51.090;-115.358;2022-08-19T02:49:04;87323.40;;;26.90
74374;BMP180;62809;51.090;-115.358;2022-08-19T02:51:42;87327.00;;;26.90
74374;BMP180;62809;51.090;-115.358;2022-08-19T02:54:14;87329.00;;;26.90
74374;BMP180;62809;51.090;-115.358;2022-08-19T02:56:44;87337.00;;;26.90
74374;BMP180;62809;51.090;-115.358;2022-08-19T02:59:12;87340.00;;;26.90
74374;BMP180;62809;51.090;-115.358;2022-08-19T03:01:41;87340.40;;;26.90
74374;BMP180;62809;51.090;-115.358;2022-08-19T03:04:13;87337.40;;;26.90
74374;BMP180;62809;51.090;-115.358;2022-08-19T03:06:47;87340.00;;;26.90
74374;BMP180;62809;51.090;-115.358;2022-08-19T03:09:19;87343.40;;;26.90
74374;BMP180;62809;51.090;-115.358;2022-08-19T03:11:46;87344.00;;;26.90
74374;BMP180;62809;51.090;-115.358;2022-08-19T03:14:13;87349.80;;;26.90
74374;BMP180;62809;51.090;-115.358;2022-08-19T03:16:59;87341.40;;;26.90
74374;BMP180;62809;51.090;-115.358;2022-08-19T03:19:26;87344.20;;;26.90
74374;BMP180;62809;51.090;-115.358;2022-08-19T03:21:54;87348.00;;;26.90
74374;BMP180;62809;51.090;-115.358;2022-08-19T03:24:22;87357.60;;;26.90
74374;BMP180;62809;51.090;-115.358;2022-08-19T03:26:54;87359.80;;;26.90
74374;BMP180;62809;51.090;-115.358;2022-08-19T03:29:27;87363.40;;;26.90
74374;BMP180;62809;51.090;-115.358;2022-08-19T03:31:55;87363.60;;;26.90
74374;BMP180;62809;51.090;-115.358;2022-08-19T03:34:26;87370.00;;;26.88
74374;BMP180;62809;51.090;-115.358;2022-08-19T03:36:58;87374.40;;;26.82
74374;BMP180;62809;51.090;-115.358;2022-08-19T03:39:26;87376.20;;;26.80
74374;BMP180;62809;51.090;-115.358;2022-08-19T03:41:54;87378.00;;;26.80
74374;BMP180;62809;51.090;-115.358;2022-08-19T03:44:29;87378.40;;;26.80
74374;BMP180;62809;51.090;-115.358;2022-08-19T03:47:00;87377.20;;;26.80
74374;BMP180;62809;51.090;-115.358;2022-08-19T03:49:30;87380.00;;;26.80
74374;BMP180;62809;51.090;-115.358;2022-08-19T03:51:59;87381.00;;;26.80
74374;BMP180;62809;51.090;-115.358;2022-08-19T03:54:29;87382.80;;;26.80
74374;BMP180;62809;51.090;-115.358;2022-08-19T03:56:59;87385.60;;;26.80
74374;BMP180;62809;51.090;-115.358;2022-08-19T03:59:34;87388.20;;;26.80
74374;BMP180;62809;51.090;-115.358;2022-08-19T04:02:09;87389.00;;;26.80
74374;BMP180;62809;51.090;-115.358;2022-08-19T04:04:41;87389.80;;;26.80
74374;BMP180;62809;51.090;-115.358;2022-08-19T04:07:11;87390.20;;;26.80
74374;BMP180;62809;51.090;-115.358;2022-08-19T04:09:45;87394.60;;;26.80
74374;BMP180;62809;51.090;-115.358;2022-08-19T04:12:13;87391.80;;;26.80
74374;BMP180;62809;51.090;-115.358;2022-08-19T04:14:41;87390.00;;;26.80
74374;BMP180;62809;51.090;-115.358;2022-08-19T04:17:08;87391.00;;;26.80
74374;BMP180;62809;51.090;-115.358;2022-08-19T04:19:37;87392.00;;;26.80
74374;BMP180;62809;51.090;-115.358;2022-08-19T04:22:13;87386.60;;;26.80
74374;BMP180;62809;51.090;-115.358;2022-08-19T04:24:44;87387.60;;;26.80
74374;BMP180;62809;51.090;-115.358;2022-08-19T04:27:14;87391.20;;;26.78
74374;BMP180;62809;51.090;-115.358;2022-08-19T04:29:43;87392.40;;;26.76
74374;BMP180;62809;51.090;-115.358;2022-08-19T04:32:12;87394.40;;;26.70
74374;BMP180;62809;51.090;-115.358;2022-08-19T04:34:42;87396.60;;;26.70
74374;BMP180;62809;51.090;-115.358;2022-08-19T04:37:09;87396.60;;;26.70
74374;BMP180;62809;51.090;-115.358;2022-08-19T04:39:39;87398.80;;;26.70
74374;BMP180;62809;51.090;-115.358;2022-08-19T04:42:26;87401.00;;;26.70
74374;BMP180;62809;51.090;-115.358;2022-08-19T04:45:14;87400.00;;;26.70
74374;BMP180;62809;51.090;-115.358;2022-08-19T04:47:43;87402.00;;;26.70
74374;BMP180;62809;51.090;-115.358;2022-08-19T04:50:13;87399.00;;;26.70
74374;BMP180;62809;51.090;-115.358;2022-08-19T04:52:40;87399.40;;;26.70
74374;BMP180;62809;51.090;-115.358;2022-08-19T04:55:11;87400.00;;;26.70
74374;BMP180;62809;51.090;-115.358;2022-08-19T04:57:40;87401.80;;;26.70
74374;BMP180;62809;51.090;-115.358;2022-08-19T05:00:10;87404.00;;;26.70
74374;BMP180;62809;51.090;-115.358;2022-08-19T05:02:38;87405.60;;;26.70
74374;BMP180;62809;51.090;-115.358;2022-08-19T05:05:08;87404.20;;;26.70
74374;BMP180;62809;51.090;-115.358;2022-08-19T05:07:36;87405.60;;;26.70
74374;BMP180;62809;51.090;-115.358;2022-08-19T05:10:06;87408.20;;;26.70
74374;BMP180;62809;51.090;-115.358;2022-08-19T05:12:34;87411.20;;;26.70
74374;BMP180;62809;51.090;-115.358;2022-08-19T05:15:05;87411.60;;;26.70
74374;BMP180;62809;51.090;-115.358;2022-08-19T05:17:35;87407.40;;;26.70
74374;BMP180;62809;51.090;-115.358;2022-08-19T05:20:05;87409.20;;;26.68
74374;BMP180;62809;51.090;-115.358;2022-08-19T05:22:51;87409.40;;;26.68
74374;BMP180;62809;51.090;-115.358;2022-08-19T05:25:21;87411.00;;;26.64
74374;BMP180;62809;51.090;-115.358;2022-08-19T05:27:52;87406.00;;;26.64
74374;BMP180;62809;51.090;-115.358;2022-08-19T05:30:20;87405.40;;;26.62
74374;BMP180;62809;51.090;-115.358;2022-08-19T05:32:47;87406.00;;;26.60
74374;BMP180;62809;51.090;-115.358;2022-08-19T05:35:18;87407.60;;;26.60
74374;BMP180;62809;51.090;-115.358;2022-08-19T05:37:45;87406.60;;;26.60
74374;BMP180;62809;51.090;-115.358;2022-08-19T05:40:15;87402.40;;;26.60
74374;BMP180;62809;51.090;-115.358;2022-08-19T05:42:42;87402.60;;;26.60
74374;BMP180;62809;51.090;-115.358;2022-08-19T05:45:10;87404.40;;;26.60
74374;BMP180;62809;51.090;-115.358;2022-08-19T05:47:40;87404.20;;;26.60
74374;BMP180;62809;51.090;-115.358;2022-08-19T05:50:07;87406.80;;;26.60
74374;BMP180;62809;51.090;-115.358;2022-08-19T05:52:38;87407.60;;;26.60
74374;BMP180;62809;51.090;-115.358;2022-08-19T05:55:06;87403.60;;;26.60
74374;BMP180;62809;51.090;-115.358;2022-08-19T05:57:33;87406.20;;;26.60
74374;BMP180;62809;51.090;-115.358;2022-08-19T06:00:00;87406.80;;;26.60
74374;BMP180;62809;51.090;-115.358;2022-08-19T06:02:31;87409.60;;;26.60
74374;BMP180;62809;51.090;-115.358;2022-08-19T06:04:58;87408.00;;;26.60
74374;BMP180;62809;51.090;-115.358;2022-08-19T06:07:25;87410.80;;;26.60
74374;BMP180;62809;51.090;-115.358;2022-08-19T06:09:52;87406.00;;;26.60
74374;BMP180;62809;51.090;-115.358;2022-08-19T06:12:20;87410.20;;;26.60
74374;BMP180;62809;51.090;-115.358;2022-08-19T06:14:50;87408.00;;;26.60
74374;BMP180;62809;51.090;-115.358;2022-08-19T06:17:20;87408.60;;;26.60
74374;BMP180;62809;51.090;-115.358;2022-08-19T06:19:51;87404.80;;;26.60
74374;BMP180;62809;51.090;-115.358;2022-08-19T06:22:18;87414.20;;;26.60
74374;BMP180;62809;51.090;-115.358;2022-08-19T06:24:46;87413.40;;;26.60
74374;BMP180;62809;51.090;-115.358;2022-08-19T06:27:13;87409.00;;;26.60
74374;BMP180;62809;51.090;-115.358;2022-08-19T06:29:43;87411.80;;;26.60
74374;BMP180;62809;51.090;-115.358;2022-08-19T06:32:16;87415.60;;;26.60
74374;BMP180;62809;51.090;-115.358;2022-08-19T06:34:43;87414.80;;;26.60
74374;BMP180;62809;51.090;-115.358;2022-08-19T06:37:13;87419.00;;;26.60
74374;BMP180;62809;51.090;-115.358;2022-08-19T06:39:42;87416.00;;;26.60
74374;BMP180;62809;51.090;-115.358;2022-08-19T06:42:13;87421.60;;;26.60
74374;BMP180;62809;51.090;-115.358;2022-08-19T06:44:47;87422.80;;;26.60
74374;BMP180;62809;51.090;-115.358;2022-08-19T06:47:21;87423.60;;;26.60
74374;BMP180;62809;51.090;-115.358;2022-08-19T06:49:48;87422.80;;;26.60
74374;BMP180;62809;51.090;-115.358;2022-08-19T06:52:16;87426.80;;;26.50
74374;BMP180;62809;51.090;-115.358;2022-08-19T06:54:45;87424.20;;;26.50
74374;BMP180;62809;51.090;-115.358;2022-08-19T06:57:12;87420.20;;;26.50
74374;BMP180;62809;51.090;-115.358;2022-08-19T06:59:42;87420.40;;;26.50
74374;BMP180;62809;51.090;-115.358;2022-08-19T07:02:09;87423.60;;;26.50
74374;BMP180;62809;51.090;-115.358;2022-08-19T07:04:39;87421.20;;;26.50
74374;BMP180;62809;51.090;-115.358;2022-08-19T07:07:13;87421.80;;;26.50
74374;BMP180;62809;51.090;-115.358;2022-08-19T07:09:43;87423.00;;;26.50
74374;BMP180;62809;51.090;-115.358;2022-08-19T07:12:13;87422.20;;;26.50
74374;BMP180;62809;51.090;-115.358;2022-08-19T07:14:44;87424.00;;;26.50
74374;BMP180;62809;51.090;-115.358;2022-08-19T07:17:17;87423.40;;;26.50
74374;BMP180;62809;51.090;-115.358;2022-08-19T07:19:45;87422.40;;;26.50
74374;BMP180;62809;51.090;-115.358;2022-08-19T07:22:15;87420.20;;;26.46
74374;BMP180;62809;51.090;-115.358;2022-08-19T07:24:44;87426.40;;;26.46
74374;BMP180;62809;51.090;-115.358;2022-08-19T07:27:14;87426.60;;;26.42
74374;BMP180;62809;51.090;-115.358;2022-08-19T07:29:41;87430.80;;;26.42
74374;BMP180;62809;51.090;-115.358;2022-08-19T07:32:08;87429.40;;;26.40
74374;BMP180;62809;51.090;-115.358;2022-08-19T07:34:38;87428.60;;;26.40
74374;BMP180;62809;51.090;-115.358;2022-08-19T07:37:06;87427.40;;;26.40
74374;BMP180;62809;51.090;-115.358;2022-08-19T07:39:36;87427.20;;;26.40
74374;BMP180;62809;51.090;-115.358;2022-08-19T07:42:09;87424.60;;;26.40
74374;BMP180;62809;51.090;-115.358;2022-08-19T07:44:37;87425.20;;;26.40
74374;BMP180;62809;51.090;-115.358;2022-08-19T07:47:07;87423.80;;;26.40
74374;BMP180;62809;51.090;-115.358;2022-08-19T07:49:34;87423.20;;;26.40
74374;BMP180;62809;51.090;-115.358;2022-08-19T07:52:06;87419.60;;;26.40
74374;BMP180;62809;51.090;-115.358;2022-08-19T07:54:38;87421.00;;;26.40
74374;BMP180;62809;51.090;-115.358;2022-08-19T07:57:07;87419.60;;;26.40
74374;BMP180;62809;51.090;-115.358;2022-08-19T07:59:35;87417.60;;;26.40
74374;BMP180;62809;51.090;-115.358;2022-08-19T08:02:05;87416.20;;;26.40
74374;BMP180;62809;51.090;-115.358;2022-08-19T08:04:33;87417.20;;;26.40
74374;BMP180;62809;51.090;-115.358;2022-08-19T08:07:20;87411.40;;;26.34
74374;BMP180;62809;51.090;-115.358;2022-08-19T08:10:08;87410.60;;;26.30
74374;BMP180;62809;51.090;-115.358;2022-08-19T08:12:40;87409.00;;;26.30
74374;BMP180;62809;51.090;-115.358;2022-08-19T08:15:15;87413.00;;;26.30
74374;BMP180;62809;51.090;-115.358;2022-08-19T08:17:44;87414.20;;;26.30
74374;BMP180;62809;51.090;-115.358;2022-08-19T08:20:15;87411.20;;;26.30
74374;BMP180;62809;51.090;-115.358;2022-08-19T08:22:47;87416.20;;;26.30
74374;BMP180;62809;51.090;-115.358;2022-08-19T08:25:36;87414.40;;;26.30
74374;BMP180;62809;51.090;-115.358;2022-08-19T08:28:05;87418.60;;;26.30
74374;BMP180;62809;51.090;-115.358;2022-08-19T08:30:34;87419.00;;;26.30
74374;BMP180;62809;51.090;-115.358;2022-08-19T08:33:02;87419.40;;;26.26
74374;BMP180;62809;51.090;-115.358;2022-08-19T08:35:32;87420.20;;;26.24
74374;BMP180;62809;51.090;-115.358;2022-08-19T08:37:59;87420.00;;;26.22
74374;BMP180;62809;51.090;-115.358;2022-08-19T08:40:48;87419.00;;;26.20
74374;BMP180;62809;51.090;-115.358;2022-08-19T08:43:28;87420.80;;;26.20
74374;BMP180;62809;51.090;-115.358;2022-08-19T08:46:13;87421.40;;;26.20
74374;BMP180;62809;51.090;-115.358;2022-08-19T08:48:59;87420.20;;;26.20
74374;BMP180;62809;51.090;-115.358;2022-08-19T08:54:12;87421.00;;;26.20
74374;BMP180;62809;51.090;-115.358;2022-08-19T08:56:43;87422.60;;;26.20
74374;BMP180;62809;51.090;-115.358;2022-08-19T08:59:28;87416.80;;;26.20
74374;BMP180;62809;51.090;-115.358;2022-08-19T09:02:00;87416.80;;;26.20
74374;BMP180;62809;51.090;-115.358;2022-08-19T09:04:29;87415.80;;;26.20
74374;BMP180;62809;51.090;-115.358;2022-08-19T09:07:16;87414.60;;;26.20
74374;BMP180;62809;51.090;-115.358;2022-08-19T09:09:55;87412.40;;;26.18
74374;BMP180;62809;51.090;-115.358;2022-08-19T09:12:47;87415.60;;;26.10
74374;BMP180;62809;51.090;-115.358;2022-08-19T09:15:25;87410.40;;;26.10
74374;BMP180;62809;51.090;-115.358;2022-08-19T09:18:04;87408.80;;;26.10
74374;BMP180;62809;51.090;-115.358;2022-08-19T09:20:35;87406.60;;;26.10
74374;BMP180;62809;51.090;-115.358;2022-08-19T09:23:04;87407.60;;;26.10
74374;BMP180;62809;51.090;-115.358;2022-08-19T09:25:31;87406.60;;;26.10
74374;BMP180;62809;51.090;-115.358;2022-08-19T09:28:01;87408.60;;;26.10
74374;BMP180;62809;51.090;-115.358;2022-08-19T09:30:34;87410.20;;;26.10
74374;BMP180;62809;51.090;-115.358;2022-08-19T09:33:06;87410.20;;;26.10
74374;BMP180;62809;51.090;-115.358;2022-08-19T09:35:35;87408.20;;;26.08
74374;BMP180;62809;51.090;-115.358;2022-08-19T09:38:04;87408.60;;;26.04
74374;BMP180;62809;51.090;-115.358;2022-08-19T09:40:32;87406.20;;;26.00
74374;BMP180;62809;51.090;-115.358;2022-08-19T09:42:59;87407.00;;;26.00
74374;BMP180;62809;51.090;-115.358;2022-08-19T09:45:29;87407.40;;;26.00
74374;BMP180;62809;51.090;-115.358;2022-08-19T09:47:59;87410.60;;;26.00
74374;BMP180;62809;51.090;-115.358;2022-08-19T09:50:26;87411.80;;;26.00
74374;BMP180;62809;51.090;-115.358;2022-08-19T09:52:55;87412.80;;;26.00
74374;BMP180;62809;51.090;-115.358;2022-08-19T09:55:23;87415.00;;;26.00
74374;BMP180;62809;51.090;-115.358;2022-08-19T09:57:54;87410.00;;;26.00
74374;BMP180;62809;51.090;-115.358;2022-08-19T10:00:22;87414.60;;;26.00
74374;BMP180;62809;51.090;-115.358;2022-08-19T10:02:50;87415.60;;;25.98
74374;BMP180;62809;51.090;-115.358;2022-08-19T10:05:20;87415.20;;;25.96
74374;BMP180;62809;51.090;-115.358;2022-08-19T10:08:06;87414.20;;;25.90
74374;BMP180;62809;51.090;-115.358;2022-08-19T10:10:36;87416.00;;;25.90
74374;BMP180;62809;51.090;-115.358;2022-08-19T10:13:03;87414.00;;;25.90
74374;BMP180;62809;51.090;-115.358;2022-08-19T10:15:30;87412.00;;;25.90
74374;BMP180;62809;51.090;-115.358;2022-08-19T10:17:58;87412.20;;;25.90
74374;BMP180;62809;51.090;-115.358;2022-08-19T10:20:28;87414.40;;;25.90
74374;BMP180;62809;51.090;-115.358;2022-08-19T10:22:58;87411.40;;;25.90
74374;BMP180;62809;51.090;-115.358;2022-08-19T10:25:26;87411.00;;;25.90
74374;BMP180;62809;51.090;-115.358;2022-08-19T10:27:55;87410.00;;;25.84
74374;BMP180;62809;51.090;-115.358;2022-08-19T10:30:22;87412.80;;;25.80
74374;BMP180;62809;51.090;-115.358;2022-08-19T10:32:53;87412.00;;;25.80
74374;BMP180;62809;51.090;-115.358;2022-08-19T10:35:21;87411.40;;;25.80
74374;BMP180;62809;51.090;-115.358;2022-08-19T10:37:49;87414.00;;;25.80
74374;BMP180;62809;51.090;-115.358;2022-08-19T10:40:18;87412.20;;;25.80
74374;BMP180;62809;51.090;-115.358;2022-08-19T10:42:46;87411.80;;;25.80
74374;BMP180;62809;51.090;-115.358;2022-08-19T10:45:13;87409.80;;;25.80
74374;BMP180;62809;51.090;-115.358;2022-08-19T10:47:43;87414.40;;;25.80
74374;BMP180;62809;51.090;-115.358;2022-08-19T10:50:11;87410.00;;;25.80
74374;BMP180;62809;51.090;-115.358;2022-08-19T10:52:57;87407.00;;;25.78
74374;BMP180;62809;51.090;-115.358;2022-08-19T10:55:28;87403.80;;;25.72
74374;BMP180;62809;51.090;-115.358;2022-08-19T10:58:16;87398.80;;;25.70
74374;BMP180;62809;51.090;-115.358;2022-08-19T11:00:58;87402.20;;;25.70
74374;BMP180;62809;51.090;-115.358;2022-08-19T11:03:29;87406.00;;;25.70
74374;BMP180;62809;51.090;-115.358;2022-08-19T11:06:07;87406.00;;;25.70
74374;BMP180;62809;51.090;-115.358;2022-08-19T11:08:37;87405.40;;;25.70
74374;BMP180;62809;51.090;-115.358;2022-08-19T11:11:06;87406.40;;;25.70
74374;BMP180;62809;51.090;-115.358;2022-08-19T11:13:40;87404.60;;;25.64
74374;BMP180;62809;51.090;-115.358;2022-08-19T11:16:12;87404.00;;;25.60
74374;BMP180;62809;51.090;-115.358;2022-08-19T11:18:50;87406.20;;;25.60
74374;BMP180;62809;51.090;-115.358;2022-08-19T11:21:22;87411.00;;;25.60
74374;BMP180;62809;51.090;-115.358;2022-08-19T11:23:55;87413.60;;;25.60
74374;BMP180;62809;51.090;-115.358;2022-08-19T11:26:24;87410.40;;;25.60
74374;BMP180;62809;51.090;-115.358;2022-08-19T11:28:53;87410.20;;;25.60
74374;BMP180;62809;51.090;-115.358;2022-08-19T11:31:26;87408.60;;;25.60
74374;BMP180;62809;51.090;-115.358;2022-08-19T11:33:59;87410.00;;;25.60
74374;BMP180;62809;51.090;-115.358;2022-08-19T11:36:30;87414.20;;;25.50
74374;BMP180;62809;51.090;-115.358;2022-08-19T11:39:00;87411.60;;;25.50
74374;BMP180;62809;51.090;-115.358;2022-08-19T11:41:28;87414.80;;;25.50
74374;BMP180;62809;51.090;-115.358;2022-08-19T11:43:55;87409.00;;;25.50
74374;BMP180;62809;51.090;-115.358;2022-08-19T11:46:25;87409.80;;;25.50
74374;BMP180;62809;51.090;-115.358;2022-08-19T11:48:52;87410.80;;;25.50
74374;BMP180;62809;51.090;-115.358;2022-08-19T11:51:23;87409.20;;;25.50
74374;BMP180;62809;51.090;-115.358;2022-08-19T11:53:55;87410.20;;;25.48
74374;BMP180;62809;51.090;-115.358;2022-08-19T11:56:24;87410.00;;;25.44
74374;BMP180;62809;51.090;-115.358;2022-08-19T11:58:53;87409.80;;;25.40
74374;BMP180;62809;51.090;-115.358;2022-08-19T12:01:24;87413.20;;;25.40
74374;BMP180;62809;51.090;-115.358;2022-08-19T12:03:55;87406.80;;;25.40
74374;BMP180;62809;51.090;-115.358;2022-08-19T12:06:28;87407.60;;;25.40
74374;BMP180;62809;51.090;-115.358;2022-08-19T12:08:57;87409.60;;;25.40
74374;BMP180;62809;51.090;-115.358;2022-08-19T12:11:26;87403.80;;;25.40
74374;BMP180;62809;51.090;-115.358;2022-08-19T12:14:00;87405.00;;;25.40
74374;BMP180;62809;51.090;-115.358;2022-08-19T12:16:30;87404.80;;;25.40
74374;BMP180;62809;51.090;-115.358;2022-08-19T12:19:01;87399.60;;;25.38
74374;BMP180;62809;51.090;-115.358;2022-08-19T12:21:34;87398.40;;;25.30
74374;BMP180;62809;51.090;-115.358;2022-08-19T12:24:06;87403.60;;;25.30
74374;BMP180;62809;51.090;-115.358;2022-08-19T12:26:35;87403.60;;;25.30
74374;BMP180;62809;51.090;-115.358;2022-08-19T12:29:06;87404.80;;;25.30
74374;BMP180;62809;51.090;-115.358;2022-08-19T12:31:36;87402.40;;;25.30
74374;BMP180;62809;51.090;-115.358;2022-08-19T12:34:03;87401.80;;;25.30
74374;BMP180;62809;51.090;-115.358;2022-08-19T12:36:34;87406.60;;;25.30
74374;BMP180;62809;51.090;-115.358;2022-08-19T12:39:01;87401.60;;;25.30
74374;BMP180;62809;51.090;-115.358;2022-08-19T12:41:28;87404.20;;;25.30
74374;BMP180;62809;51.090;-115.358;2022-08-19T12:43:55;87402.60;;;25.20
74374;BMP180;62809;51.090;-115.358;2022-08-19T12:46:22;87402.80;;;25.20
74374;BMP180;62809;51.090;-115.358;2022-08-19T12:48:50;87406.60;;;25.20
74374;BMP180;62809;51.090;-115.358;2022-08-19T12:51:19;87404.20;;;25.20
74374;BMP180;62809;51.090;-115.358;2022-08-19T12:53:49;87405.80;;;25.20
74374;BMP180;62809;51.090;-115.358;2022-08-19T12:56:17;87401.20;;;25.20
74374;BMP180;62809;51.090;-115.358;2022-08-19T12:58:47;87406.00;;;25.20
74374;BMP180;62809;51.090;-115.358;2022-08-19T13:01:17;87402.60;;;25.20
74374;BMP180;62809;51.090;-115.358;2022-08-19T13:03:47;87406.80;;;25.16
74374;BMP180;62809;51.090;-115.358;2022-08-19T13:06:15;87405.20;;;25.10
74374;BMP180;62809;51.090;-115.358;2022-08-19T13:08:42;87405.60;;;25.14
74374;BMP180;62809;51.090;-115.358;2022-08-19T13:11:18;87407.00;;;25.14
74374;BMP180;62809;51.090;-115.358;2022-08-19T13:13:50;87406.00;;;25.10
74374;BMP180;62809;51.090;-115.358;2022-08-19T13:16:19;87407.80;;;25.10
74374;BMP180;62809;51.090;-115.358;2022-08-19T13:18:48;87405.80;;;25.10
74374;BMP180;62809;51.090;-115.358;2022-08-19T13:21:17;87400.20;;;25.10
74374;BMP180;62809;51.090;-115.358;2022-08-19T13:23:46;87404.80;;;25.10
74374;BMP180;62809;51.090;-115.358;2022-08-19T13:26:15;87406.20;;;25.10
74374;BMP180;62809;51.090;-115.358;2022-08-19T13:28:44;87404.60;;;25.02
74374;BMP180;62809;51.090;-115.358;2022-08-19T13:31:33;87404.00;;;25.00
74374;BMP180;62809;51.090;-115.358;2022-08-19T13:34:29;87406.00;;;25.00
74374;BMP180;62809;51.090;-115.358;2022-08-19T13:36:58;87400.80;;;25.00
74374;BMP180;62809;51.090;-115.358;2022-08-19T13:39:26;87400.00;;;25.00
74374;BMP180;62809;51.090;-115.358;2022-08-19T13:41:57;87402.00;;;25.00
74374;BMP180;62809;51.090;-115.358;2022-08-19T13:44:28;87399.60;;;25.00
74374;BMP180;62809;51.090;-115.358;2022-08-19T13:47:04;87398.40;;;24.98
74374;BMP180;62809;51.090;-115.358;2022-08-19T13:49:39;87400.40;;;24.90
74374;BMP180;62809;51.090;-115.358;2022-08-19T13:52:07;87399.40;;;24.90
74374;BMP180;62809;51.090;-115.358;2022-08-19T13:54:35;87402.80;;;24.90
74374;BMP180;62809;51.090;-115.358;2022-08-19T13:57:02;87399.40;;;24.90